Авиационная погода в Павлодаре

Регион: 
Погода METAR: 
UASP 282200Z 26004MPS 9999 BKN013CB M03/M04 Q1028 R21/19//60 NOSIG RMK QFE760/1013
Время наблюдения
2020-10-28T22:00:00Z
Температура C
-3.0
Точка росы
-4.0
Направление ветра
260
Скорость ветра (узлы)
8
Метео видимость
6.21
Явления погоды
Условия полета
MVFR
Аэропорт подробнее: